createdAt,value
2019-05-14T00:02:31.802Z,1.40
2019-05-14T00:05:02.771Z,1.70
2019-05-14T00:07:33.228Z,1.47
2019-05-14T00:10:05.235Z,2.17
2019-05-14T00:12:36.032Z,1.43
2019-05-14T00:15:10.957Z,1.40
2019-05-14T00:17:41.557Z,1.30
2019-05-14T00:20:14.607Z,1.50
2019-05-14T00:22:46.646Z,1.53
2019-05-14T00:25:22.011Z,1.70
2019-05-14T00:27:53.572Z,1.40
2019-05-14T00:30:23.976Z,1.30
2019-05-14T00:32:54.741Z,1.63
2019-05-14T00:35:25.170Z,1.70
2019-05-14T00:37:55.905Z,2.33
2019-05-14T00:40:26.402Z,1.63
2019-05-14T00:42:58.658Z,1.70
2019-05-14T00:45:31.126Z,1.73
2019-05-14T00:48:02.394Z,4.40
2019-05-14T00:50:32.808Z,3.30
2019-05-14T00:53:03.585Z,2.93
2019-05-14T00:55:34.081Z,2.13
2019-05-14T00:58:04.520Z,2.40
2019-05-14T01:00:36.505Z,1.67
2019-05-14T01:03:07.347Z,2.43
2019-05-14T01:05:37.772Z,2.50
2019-05-14T01:08:12.044Z,1.97
2019-05-14T01:10:44.418Z,2.80
2019-05-14T01:13:16.642Z,2.57
2019-05-14T01:15:47.048Z,2.10
2019-05-14T01:18:21.717Z,2.30
2019-05-14T01:20:52.103Z,2.13
2019-05-14T01:23:24.344Z,2.17
2019-05-14T01:26:05.926Z,1.57
2019-05-14T01:28:41.352Z,1.90
2019-05-14T01:31:14.970Z,2.67
2019-05-14T01:33:45.468Z,1.60
2019-05-14T01:36:15.846Z,1.70
2019-05-14T01:38:47.854Z,1.50
2019-05-14T01:41:18.681Z,1.90
2019-05-14T01:43:51.472Z,1.70
2019-05-14T01:46:26.149Z,1.90
2019-05-14T01:48:58.581Z,1.70
2019-05-14T01:51:31.551Z,1.70
2019-05-14T01:54:02.712Z,1.83
2019-05-14T01:56:36.678Z,1.83
2019-05-14T01:59:09.177Z,2.23
2019-05-14T02:01:42.336Z,1.80
2019-05-14T02:04:13.941Z,1.80
2019-05-14T02:06:45.599Z,1.73
2019-05-14T02:09:15.923Z,2.23
2019-05-14T02:11:47.427Z,2.07
2019-05-14T02:14:18.214Z,1.73
2019-05-14T02:16:49.232Z,1.60
2019-05-14T02:19:22.873Z,1.93
2019-05-14T02:21:53.689Z,2.97
2019-05-14T02:24:25.511Z,1.70
2019-05-14T02:26:57.806Z,1.73
2019-05-14T02:29:28.175Z,2.00
2019-05-14T02:31:59.062Z,1.90
2019-05-14T02:34:30.667Z,1.77
2019-05-14T02:37:02.879Z,2.00
2019-05-14T02:39:34.743Z,2.03
2019-05-14T02:42:09.037Z,2.07
2019-05-14T02:44:40.985Z,2.30
2019-05-14T02:47:12.518Z,2.13
2019-05-14T02:49:43.236Z,1.80
2019-05-14T02:52:15.086Z,2.10
2019-05-14T02:54:49.645Z,2.33
2019-05-14T02:57:20.669Z,2.10
2019-05-14T02:59:51.513Z,1.90
2019-05-14T03:02:24.368Z,1.80
2019-05-14T03:04:54.839Z,1.83
2019-05-14T03:07:29.613Z,1.87
2019-05-14T03:10:00.191Z,2.43
2019-05-14T03:12:30.600Z,2.13
2019-05-14T03:15:03.803Z,1.93
2019-05-14T03:17:35.345Z,1.77
2019-05-14T03:20:09.280Z,2.10
2019-05-14T03:22:54.915Z,2.23
2019-05-14T03:25:14.316Z,1.93
2019-05-14T03:27:45.109Z,2.00
2019-05-14T03:30:22.221Z,2.07
2019-05-14T03:32:52.675Z,1.80
2019-05-14T03:35:24.856Z,2.20
2019-05-14T03:37:55.464Z,2.03
2019-05-14T03:40:29.201Z,1.77
2019-05-14T03:43:00.032Z,2.00
2019-05-14T03:45:31.951Z,2.00
2019-05-14T03:48:04.988Z,2.20
2019-05-14T03:50:40.454Z,2.10
2019-05-14T03:53:14.745Z,1.87
2019-05-14T03:55:50.384Z,1.90
2019-05-14T03:58:21.193Z,2.37
2019-05-14T04:01:00.856Z,2.40
2019-05-14T04:03:33.272Z,2.23
2019-05-14T04:06:09.819Z,2.00
2019-05-14T04:08:40.981Z,2.30
2019-05-14T04:11:12.008Z,2.00
2019-05-14T04:13:44.068Z,2.50
2019-05-14T04:16:20.111Z,2.03
2019-05-14T04:18:52.803Z,2.50
2019-05-14T04:21:24.955Z,2.30
2019-05-14T04:23:59.489Z,2.30
2019-05-14T04:26:50.700Z,2.83
2019-05-14T04:29:05.875Z,2.30
2019-05-14T04:31:39.764Z,2.00
2019-05-14T04:34:11.605Z,2.33
2019-05-14T04:36:43.557Z,2.17
2019-05-14T04:39:15.681Z,2.40
2019-05-14T04:41:49.532Z,2.60
2019-05-14T04:44:20.012Z,2.13
2019-05-14T04:46:54.002Z,2.37
2019-05-14T04:49:33.389Z,2.07
2019-05-14T04:52:05.422Z,2.03
2019-05-14T04:54:39.582Z,2.40
2019-05-14T04:57:11.471Z,2.40
2019-05-14T04:59:43.026Z,2.60
2019-05-14T05:02:15.580Z,3.33
2019-05-14T05:04:50.284Z,2.00
2019-05-14T05:07:20.426Z,2.53
2019-05-14T05:09:50.825Z,2.60
2019-05-14T05:12:24.289Z,2.47
2019-05-14T05:14:59.358Z,2.50
2019-05-14T05:17:46.691Z,2.57
2019-05-14T05:20:09.897Z,2.40
2019-05-14T05:22:40.196Z,2.50
2019-05-14T05:25:12.963Z,2.30
2019-05-14T05:27:48.536Z,2.93
2019-05-14T05:30:22.715Z,2.67
2019-05-14T05:32:56.118Z,3.00
2019-05-14T05:35:30.130Z,2.80
2019-05-14T05:38:03.799Z,2.30
2019-05-14T05:40:39.177Z,2.20
2019-05-14T05:43:11.587Z,3.03
2019-05-14T05:45:48.421Z,2.43
2019-05-14T05:48:20.202Z,2.33
2019-05-14T05:50:52.406Z,2.13
2019-05-14T05:53:28.527Z,2.10
2019-05-14T05:55:59.535Z,1.70
2019-05-14T05:58:30.263Z,1.90
2019-05-14T06:01:01.078Z,2.00
2019-05-14T06:03:31.776Z,1.90
2019-05-14T06:06:03.847Z,1.90
2019-05-14T06:08:35.406Z,2.20
2019-05-14T06:11:08.475Z,2.27
2019-05-14T06:13:41.237Z,2.07
2019-05-14T06:16:11.819Z,2.20
2019-05-14T06:18:42.482Z,2.30
2019-05-14T06:21:14.361Z,2.20
2019-05-14T06:23:45.294Z,2.40
2019-05-14T06:26:20.749Z,1.87
2019-05-14T06:28:53.444Z,1.83
2019-05-14T06:31:29.023Z,1.80
2019-05-14T06:34:00.518Z,1.70
2019-05-14T06:36:32.456Z,1.90
2019-05-14T06:39:04.517Z,1.80
2019-05-14T06:41:35.226Z,1.90
2019-05-14T06:44:09.210Z,1.53
2019-05-14T06:46:40.002Z,2.10
2019-05-14T06:49:12.261Z,2.10
2019-05-14T06:51:43.935Z,2.07
2019-05-14T06:54:19.452Z,2.30
2019-05-14T06:56:54.059Z,1.70
2019-05-14T06:59:28.687Z,1.80
2019-05-14T07:02:00.593Z,1.80
2019-05-14T07:04:32.845Z,1.20
2019-05-14T07:07:09.142Z,1.50
2019-05-14T07:09:41.774Z,1.60
2019-05-14T07:12:15.001Z,1.60
2019-05-14T07:14:48.151Z,1.40
2019-05-14T07:17:21.032Z,1.93
2019-05-14T07:19:58.295Z,1.40
2019-05-14T07:22:33.974Z,1.67
2019-05-14T07:25:04.531Z,1.20
2019-05-14T07:27:39.193Z,1.63
2019-05-14T07:30:11.610Z,1.47
2019-05-14T07:32:44.790Z,1.37
2019-05-14T07:35:18.329Z,1.50
2019-05-14T07:37:50.150Z,1.20
2019-05-14T07:40:24.040Z,1.47
2019-05-14T07:42:58.303Z,1.70
2019-05-14T07:45:34.160Z,1.83
2019-05-14T07:48:09.744Z,1.57
2019-05-14T07:50:42.135Z,1.37
2019-05-14T07:53:12.757Z,1.63
2019-05-14T07:55:45.229Z,1.40
2019-05-14T07:58:19.585Z,1.20
2019-05-14T08:00:51.797Z,1.43
2019-05-14T08:03:23.373Z,1.17
2019-05-14T08:05:53.746Z,1.63
2019-05-14T08:08:26.258Z,1.77
2019-05-14T08:10:59.001Z,1.20
2019-05-14T08:13:30.045Z,1.20
2019-05-14T08:16:03.992Z,1.40
2019-05-14T08:18:39.595Z,1.37
2019-05-14T08:21:10.390Z,1.40
2019-05-14T08:23:41.452Z,1.40
2019-05-14T08:26:12.656Z,1.40
2019-05-14T08:28:45.994Z,2.17
2019-05-14T08:31:18.712Z,1.33
2019-05-14T08:33:49.321Z,1.53
2019-05-14T08:36:20.660Z,1.20
2019-05-14T08:38:53.743Z,1.63
2019-05-14T08:41:25.358Z,1.50
2019-05-14T08:43:59.260Z,1.43
2019-05-14T08:46:30.660Z,1.57
2019-05-14T08:49:01.749Z,1.80
2019-05-14T08:51:38.607Z,1.23
2019-05-14T08:54:21.544Z,1.50
2019-05-14T08:56:52.073Z,1.53
2019-05-14T08:59:28.482Z,1.50
2019-05-14T09:02:06.486Z,1.70
2019-05-14T09:04:43.058Z,1.93
2019-05-14T09:07:14.736Z,1.70
2019-05-14T09:09:51.783Z,1.70
2019-05-14T09:12:23.319Z,1.83
2019-05-14T09:14:58.843Z,1.60
2019-05-14T09:17:33.170Z,2.20
2019-05-14T09:20:07.257Z,1.70
2019-05-14T09:22:39.554Z,2.03
2019-05-14T09:25:12.041Z,1.80
2019-05-14T09:27:48.957Z,1.97
2019-05-14T09:30:19.758Z,1.93
2019-05-14T09:32:50.276Z,1.67
2019-05-14T09:35:22.063Z,1.83
2019-05-14T09:37:53.498Z,1.90
2019-05-14T09:40:25.552Z,1.83
2019-05-14T09:42:58.725Z,2.30
2019-05-14T09:45:30.885Z,1.80
2019-05-14T09:48:05.398Z,2.50
2019-05-14T09:50:38.309Z,2.17
2019-05-14T09:53:13.524Z,1.97
2019-05-14T09:55:49.082Z,1.70
2019-05-14T09:58:20.221Z,1.87
2019-05-14T10:00:54.394Z,1.77
2019-05-14T10:03:25.321Z,1.50
2019-05-14T10:05:58.665Z,1.63
2019-05-14T10:08:28.672Z,1.63
2019-05-14T10:11:01.545Z,2.00
2019-05-14T10:13:33.391Z,1.90
2019-05-14T10:16:09.536Z,1.70
2019-05-14T10:18:42.573Z,1.73
2019-05-14T10:21:14.851Z,2.00
2019-05-14T10:23:46.697Z,1.73
2019-05-14T10:26:19.081Z,1.70
2019-05-14T10:28:50.313Z,1.70
2019-05-14T10:31:28.876Z,1.70
2019-05-14T10:34:01.299Z,1.40
2019-05-14T10:36:31.758Z,1.70
2019-05-14T10:39:05.534Z,1.50
2019-05-14T10:41:38.524Z,1.43
2019-05-14T10:44:13.703Z,1.80
2019-05-14T10:46:46.048Z,1.30
2019-05-14T10:49:23.531Z,1.60
2019-05-14T10:51:56.025Z,1.50
2019-05-14T10:54:29.489Z,1.50
2019-05-14T10:57:02.341Z,1.63
2019-05-14T10:59:34.629Z,1.70
2019-05-14T11:02:05.042Z,1.13
2019-05-14T11:04:39.810Z,1.30
2019-05-14T11:07:10.178Z,1.70
2019-05-14T11:09:45.733Z,1.70
2019-05-14T11:12:19.618Z,1.83
2019-05-14T11:14:50.535Z,1.90
2019-05-14T11:17:22.276Z,1.50
2019-05-14T11:19:54.270Z,1.60
2019-05-14T11:22:28.908Z,1.70
2019-05-14T11:25:00.892Z,1.80
2019-05-14T11:27:32.327Z,1.53
2019-05-14T11:30:04.631Z,1.30
2019-05-14T11:32:38.525Z,1.47
2019-05-14T11:35:12.977Z,1.50
2019-05-14T11:37:42.390Z,1.80
2019-05-14T11:40:15.195Z,1.87
2019-05-14T11:42:49.282Z,2.20
2019-05-14T11:45:20.569Z,1.93
2019-05-14T11:47:55.045Z,1.53
2019-05-14T11:50:25.460Z,1.23
2019-05-14T11:52:58.479Z,1.73
2019-05-14T11:55:30.670Z,1.90
2019-05-14T11:58:02.128Z,1.57
2019-05-14T12:00:34.454Z,1.83
2019-05-14T12:03:05.212Z,1.70
2019-05-14T12:05:41.045Z,1.63
2019-05-14T12:08:12.821Z,1.60
2019-05-14T12:10:44.974Z,1.70
2019-05-14T12:13:19.353Z,2.00
2019-05-14T12:15:51.375Z,2.10
2019-05-14T12:18:21.801Z,1.67
2019-05-14T12:20:52.271Z,1.73
2019-05-14T12:23:24.231Z,1.70
2019-05-14T12:25:58.792Z,1.60
2019-05-14T12:28:29.676Z,1.53
2019-05-14T12:31:02.564Z,1.50
2019-05-14T12:33:34.286Z,1.30
2019-05-14T12:36:09.777Z,1.50
2019-05-14T12:38:38.605Z,1.37
2019-05-14T12:41:13.051Z,1.47
2019-05-14T12:43:49.017Z,1.77
2019-05-14T12:46:20.487Z,1.47
2019-05-14T12:48:51.988Z,1.33
2019-05-14T12:51:23.754Z,1.50
2019-05-14T12:53:55.101Z,1.37
2019-05-14T12:56:29.352Z,1.30
2019-05-14T12:59:02.705Z,1.67
2019-05-14T13:01:35.331Z,1.50
2019-05-14T13:04:09.125Z,1.33
2019-05-14T13:06:41.505Z,1.47
2019-05-14T13:09:13.672Z,1.30
2019-05-14T13:11:45.182Z,1.20
2019-05-14T13:14:17.576Z,1.20
2019-05-14T13:16:54.819Z,1.20
2019-05-14T13:19:28.459Z,1.30
2019-05-14T13:22:13.087Z,1.43
2019-05-14T13:24:39.155Z,1.13
2019-05-14T13:27:10.342Z,1.50
2019-05-14T13:29:42.439Z,1.20
2019-05-14T13:32:19.270Z,1.50
2019-05-14T13:34:51.354Z,1.50
2019-05-14T13:37:23.550Z,1.30
2019-05-14T13:39:59.183Z,1.20
2019-05-14T13:42:30.982Z,1.30
2019-05-14T13:45:06.406Z,1.30
2019-05-14T13:47:42.133Z,1.20
2019-05-14T13:50:15.060Z,1.30
2019-05-14T13:52:59.758Z,1.00
2019-05-14T13:55:20.963Z,1.17
2019-05-14T13:57:54.584Z,1.10
2019-05-14T14:00:25.247Z,1.10
2019-05-14T14:02:59.086Z,1.00
2019-05-14T14:05:33.808Z,1.13
2019-05-14T14:08:08.793Z,1.10
2019-05-14T14:10:44.860Z,1.17
2019-05-14T14:13:11.650Z,1.20
2019-05-14T14:15:48.930Z,1.30
2019-05-14T14:18:21.115Z,1.40
2019-05-14T14:20:53.981Z,0.90
2019-05-14T14:23:28.250Z,0.90
2019-05-14T14:25:59.551Z,1.10
2019-05-14T14:28:33.013Z,1.20
2019-05-14T14:31:10.772Z,1.17
2019-05-14T14:33:39.771Z,1.00
2019-05-14T14:36:11.431Z,1.00
2019-05-14T14:38:44.432Z,1.13
2019-05-14T14:41:19.781Z,1.20
2019-05-14T14:43:54.678Z,1.10
2019-05-14T14:46:28.593Z,1.10
2019-05-14T14:49:02.542Z,1.40
2019-05-14T14:51:41.762Z,1.20
2019-05-14T14:54:16.184Z,1.20
2019-05-14T14:56:48.819Z,1.03
2019-05-14T14:59:22.826Z,1.50
2019-05-14T15:01:53.690Z,1.27
2019-05-14T15:04:27.119Z,1.17
2019-05-14T15:07:00.151Z,1.07
2019-05-14T15:09:32.867Z,1.00
2019-05-14T15:12:08.575Z,0.97
2019-05-14T15:14:39.705Z,0.93
2019-05-14T15:17:13.109Z,1.10
2019-05-14T15:19:49.718Z,0.80
2019-05-14T15:22:22.611Z,0.83
2019-05-14T15:24:53.558Z,0.70
2019-05-14T15:27:28.029Z,1.00
2019-05-14T15:30:00.604Z,0.90
2019-05-14T15:32:35.265Z,0.90
2019-05-14T15:35:10.858Z,1.30
2019-05-14T15:37:43.075Z,1.00
2019-05-14T15:40:22.117Z,0.80
2019-05-14T15:42:50.729Z,0.77
2019-05-14T15:45:21.552Z,0.90
2019-05-14T15:47:52.268Z,0.80
2019-05-14T15:50:22.706Z,0.90
2019-05-14T15:52:55.848Z,0.67
2019-05-14T15:55:32.818Z,1.07
2019-05-14T15:58:08.693Z,0.80
2019-05-14T16:00:40.126Z,0.97
2019-05-14T16:03:13.189Z,0.90
2019-05-14T16:05:44.846Z,0.97
2019-05-14T16:08:18.842Z,0.80
2019-05-14T16:10:50.179Z,1.33
2019-05-14T16:13:22.207Z,1.20
2019-05-14T16:15:54.334Z,1.30
2019-05-14T16:18:28.957Z,1.23
2019-05-14T16:21:00.775Z,1.13
2019-05-14T16:23:35.722Z,0.90
2019-05-14T16:26:08.624Z,1.20
2019-05-14T16:28:41.075Z,0.90
2019-05-14T16:31:13.845Z,1.00
2019-05-14T16:33:45.652Z,1.20
2019-05-14T16:36:18.468Z,0.87
2019-05-14T16:38:50.618Z,0.80
2019-05-14T16:41:21.769Z,1.20
2019-05-14T16:43:54.713Z,0.87
2019-05-14T16:46:28.956Z,1.00
2019-05-14T16:49:01.503Z,1.00
2019-05-14T16:54:04.143Z,1.07
2019-05-14T16:56:41.397Z,1.10
2019-05-14T16:59:13.585Z,0.90
2019-05-14T17:01:49.182Z,0.80
2019-05-14T17:04:23.991Z,1.10
2019-05-14T17:06:58.682Z,0.90
2019-05-14T17:09:32.028Z,1.00
2019-05-14T17:12:08.498Z,1.03
2019-05-14T17:14:41.534Z,0.93
2019-05-14T17:17:13.328Z,1.00
2019-05-14T17:19:48.051Z,1.03
2019-05-14T17:22:28.674Z,0.90
2019-05-14T17:24:54.175Z,0.97
2019-05-14T17:27:25.707Z,1.20
2019-05-14T17:29:59.557Z,1.17
2019-05-14T17:32:32.135Z,1.23
2019-05-14T17:35:04.174Z,1.10
2019-05-14T17:37:39.720Z,1.00
2019-05-14T17:40:11.307Z,1.00
2019-05-14T17:42:42.013Z,1.07
2019-05-14T17:45:18.093Z,1.03
2019-05-14T17:47:50.568Z,0.90
2019-05-14T17:50:22.868Z,1.23
2019-05-14T17:52:56.386Z,1.03
2019-05-14T17:55:42.354Z,1.00
2019-05-14T17:58:03.651Z,1.40
2019-05-14T18:00:38.146Z,0.90
2019-05-14T18:03:11.881Z,0.90
2019-05-14T18:05:45.736Z,0.97
2019-05-14T18:08:18.498Z,1.20
2019-05-14T18:10:49.844Z,1.03
2019-05-14T18:13:23.829Z,1.00
2019-05-14T18:15:55.297Z,1.07
2019-05-14T18:18:29.175Z,1.07
2019-05-14T18:21:00.290Z,0.90
2019-05-14T18:23:31.684Z,1.00
2019-05-14T18:26:08.298Z,0.90
2019-05-14T18:28:38.290Z,1.00
2019-05-14T18:31:11.460Z,0.90
2019-05-14T18:33:45.998Z,1.00
2019-05-14T18:36:19.116Z,1.20
2019-05-14T18:38:50.440Z,1.20
2019-05-14T18:41:22.631Z,1.20
2019-05-14T18:43:55.279Z,1.00
2019-05-14T18:46:28.737Z,0.80
2019-05-14T18:49:01.740Z,1.03
2019-05-14T18:51:34.291Z,1.10
2019-05-14T18:54:08.460Z,1.20
2019-05-14T18:56:39.992Z,1.30
2019-05-14T18:59:12.565Z,0.90
2019-05-14T19:01:48.851Z,0.90
2019-05-14T19:04:20.081Z,1.20
2019-05-14T19:06:52.193Z,1.43
2019-05-14T19:09:25.193Z,1.50
2019-05-14T19:11:58.770Z,1.30
2019-05-14T19:14:31.098Z,1.30
2019-05-14T19:17:03.132Z,1.30
2019-05-14T19:19:35.664Z,1.40
2019-05-14T19:22:08.992Z,0.97
2019-05-14T19:24:40.485Z,1.30
2019-05-14T19:27:13.937Z,1.57
2019-05-14T19:29:48.428Z,1.17
2019-05-14T19:32:20.854Z,1.27
2019-05-14T19:34:52.811Z,1.17
2019-05-14T19:37:25.144Z,1.50
2019-05-14T19:39:58.693Z,1.50
2019-05-14T19:42:31.194Z,1.27
2019-05-14T19:45:02.300Z,1.20
2019-05-14T19:47:35.522Z,1.30
2019-05-14T19:50:08.969Z,1.60
2019-05-14T19:52:40.379Z,1.43
2019-05-14T19:55:13.975Z,1.63
2019-05-14T19:57:48.805Z,1.20
2019-05-14T20:00:28.619Z,1.33
2019-05-14T20:03:00.139Z,1.40
2019-05-14T20:05:33.943Z,1.40
2019-05-14T20:08:04.484Z,1.37
2019-05-14T20:10:38.772Z,1.40
2019-05-14T20:13:12.763Z,1.60
2019-05-14T20:15:44.228Z,1.23
2019-05-14T20:18:14.709Z,1.50
2019-05-14T20:20:49.315Z,1.30
2019-05-14T20:23:20.315Z,1.20
2019-05-14T20:25:51.082Z,1.50
2019-05-14T20:28:23.598Z,1.20
2019-05-14T20:30:54.615Z,1.17
2019-05-14T20:33:27.411Z,1.10
2019-05-14T20:36:00.018Z,1.20
2019-05-14T20:38:31.172Z,1.27
2019-05-14T20:41:04.528Z,1.40
2019-05-14T20:43:35.064Z,1.30
2019-05-14T20:46:07.244Z,1.60
2019-05-14T20:48:39.172Z,1.00
2019-05-14T20:51:13.717Z,1.07
2019-05-14T20:53:45.466Z,1.37
2019-05-14T20:56:18.964Z,1.27
2019-05-14T20:58:52.134Z,1.30
2019-05-14T21:01:24.825Z,1.37
2019-05-14T21:03:59.283Z,1.60
2019-05-14T21:06:32.068Z,1.20
2019-05-14T21:09:04.209Z,1.20
2019-05-14T21:11:38.240Z,1.80
2019-05-14T21:14:12.184Z,1.50
2019-05-14T21:16:48.820Z,1.50
2019-05-14T21:19:22.429Z,1.20
2019-05-14T21:21:54.990Z,1.20
2019-05-14T21:24:29.446Z,1.33
2019-05-14T21:27:02.293Z,1.30
2019-05-14T21:29:33.015Z,1.70
2019-05-14T21:32:05.230Z,1.53
2019-05-14T21:34:38.151Z,1.37
2019-05-14T21:37:13.196Z,1.70
2019-05-14T21:39:48.911Z,1.60
2019-05-14T21:42:19.665Z,1.40
2019-05-14T21:44:51.776Z,1.80
2019-05-14T21:47:24.001Z,1.70
2019-05-14T21:49:56.190Z,1.53
2019-05-14T21:52:28.979Z,1.70
2019-05-14T21:55:00.486Z,1.40
2019-05-14T21:57:32.145Z,1.70
2019-05-14T22:00:03.564Z,1.60
2019-05-14T22:02:38.149Z,1.47
2019-05-14T22:05:09.481Z,1.70
2019-05-14T22:07:41.373Z,1.50
2019-05-14T22:10:18.982Z,1.70
2019-05-14T22:12:48.780Z,1.70
2019-05-14T22:15:23.406Z,1.70
2019-05-14T22:17:58.798Z,1.83
2019-05-14T22:20:30.518Z,1.93
2019-05-14T22:23:01.241Z,1.90
2019-05-14T22:25:33.500Z,1.83
2019-05-14T22:28:14.887Z,1.50
2019-05-14T22:30:44.695Z,1.40
2019-05-14T22:33:19.099Z,1.30
2019-05-14T22:35:52.269Z,1.70
2019-05-14T22:38:22.613Z,1.63
2019-05-14T22:40:55.334Z,1.90
2019-05-14T22:43:25.809Z,1.70
2019-05-14T22:45:59.051Z,1.60
2019-05-14T22:48:31.522Z,1.90
2019-05-14T22:51:01.897Z,1.93
2019-05-14T22:53:32.681Z,1.60
2019-05-14T22:56:04.213Z,1.60
2019-05-14T22:58:38.242Z,1.60
2019-05-14T23:01:14.663Z,1.60
2019-05-14T23:03:44.454Z,1.60
2019-05-14T23:06:18.665Z,1.97
2019-05-14T23:08:48.710Z,1.57
2019-05-14T23:11:19.934Z,1.83
2019-05-14T23:13:52.261Z,2.03
2019-05-14T23:16:33.384Z,1.87
2019-05-14T23:18:58.321Z,2.10
2019-05-14T23:21:29.567Z,1.83
2019-05-14T23:24:00.148Z,1.70
2019-05-14T23:26:30.588Z,2.03
2019-05-14T23:29:02.537Z,2.00
2019-05-14T23:31:34.843Z,1.93
2019-05-14T23:34:06.414Z,1.80
2019-05-14T23:36:38.838Z,1.83
2019-05-14T23:39:10.787Z,1.70
2019-05-14T23:41:41.317Z,1.97
2019-05-14T23:44:14.009Z,2.00
2019-05-14T23:46:44.719Z,1.70
2019-05-14T23:49:18.236Z,1.80
2019-05-14T23:51:53.570Z,1.80
2019-05-14T23:54:25.887Z,1.50
2019-05-14T23:56:58.402Z,1.80
2019-05-14T23:59:31.670Z,2.13
